sensor_id;sensor_type;location;lat;lon;timestamp;P1;durP1;ratioP1;P2;durP2;ratioP2
23266;SDS011;11802;53.160;8.214;2023-03-31T00:00:26;16.47;;;3.57;;
23266;SDS011;11802;53.160;8.214;2023-03-31T00:02:51;11.30;;;2.73;;
23266;SDS011;11802;53.160;8.214;2023-03-31T00:05:18;18.73;;;3.33;;
23266;SDS011;11802;53.160;8.214;2023-03-31T00:07:45;13.07;;;2.77;;
23266;SDS011;11802;53.160;8.214;2023-03-31T00:10:12;16.87;;;3.13;;
23266;SDS011;11802;53.160;8.214;2023-03-31T00:12:39;12.83;;;3.60;;
23266;SDS011;11802;53.160;8.214;2023-03-31T00:15:05;17.00;;;3.33;;
23266;SDS011;11802;53.160;8.214;2023-03-31T00:17:31;14.73;;;3.33;;
23266;SDS011;11802;53.160;8.214;2023-03-31T00:19:59;13.50;;;2.80;;
23266;SDS011;11802;53.160;8.214;2023-03-31T00:22:28;17.57;;;3.70;;
23266;SDS011;11802;53.160;8.214;2023-03-31T00:24:54;18.73;;;3.43;;
23266;SDS011;11802;53.160;8.214;2023-03-31T00:27:19;20.70;;;3.83;;
23266;SDS011;11802;53.160;8.214;2023-03-31T00:29:45;12.83;;;3.00;;
23266;SDS011;11802;53.160;8.214;2023-03-31T00:32:11;19.17;;;3.30;;
23266;SDS011;11802;53.160;8.214;2023-03-31T00:34:38;15.97;;;2.97;;
23266;SDS011;11802;53.160;8.214;2023-03-31T00:37:04;14.70;;;3.07;;
23266;SDS011;11802;53.160;8.214;2023-03-31T00:39:30;18.90;;;4.43;;
23266;SDS011;11802;53.160;8.214;2023-03-31T00:42:00;13.10;;;3.20;;
23266;SDS011;11802;53.160;8.214;2023-03-31T00:44:27;14.60;;;3.67;;
23266;SDS011;11802;53.160;8.214;2023-03-31T00:46:58;22.80;;;3.60;;
23266;SDS011;11802;53.160;8.214;2023-03-31T00:49:36;17.27;;;3.27;;
23266;SDS011;11802;53.160;8.214;2023-03-31T00:54:39;21.07;;;3.80;;
23266;SDS011;11802;53.160;8.214;2023-03-31T00:57:08;18.57;;;3.53;;
23266;SDS011;11802;53.160;8.214;2023-03-31T00:59:36;13.03;;;2.77;;
23266;SDS011;11802;53.160;8.214;2023-03-31T01:02:04;16.47;;;3.10;;
23266;SDS011;11802;53.160;8.214;2023-03-31T01:04:31;16.27;;;3.80;;
23266;SDS011;11802;53.160;8.214;2023-03-31T01:07:43;15.30;;;3.00;;
23266;SDS011;11802;53.160;8.214;2023-03-31T01:09:52;11.07;;;3.10;;
23266;SDS011;11802;53.160;8.214;2023-03-31T01:12:23;17.23;;;3.57;;
23266;SDS011;11802;53.160;8.214;2023-03-31T01:14:50;16.00;;;2.83;;
23266;SDS011;11802;53.160;8.214;2023-03-31T01:17:17;18.50;;;2.77;;
23266;SDS011;11802;53.160;8.214;2023-03-31T01:19:55;12.53;;;2.53;;
23266;SDS011;11802;53.160;8.214;2023-03-31T01:27:56;12.50;;;2.70;;
23266;SDS011;11802;53.160;8.214;2023-03-31T01:33:19;18.43;;;3.03;;
23266;SDS011;11802;53.160;8.214;2023-03-31T01:46:57;15.77;;;3.13;;
23266;SDS011;11802;53.160;8.214;2023-03-31T01:52:39;15.37;;;3.63;;
23266;SDS011;11802;53.160;8.214;2023-03-31T01:55:23;14.30;;;3.07;;
23266;SDS011;11802;53.160;8.214;2023-03-31T01:58:02;19.27;;;3.23;;
23266;SDS011;11802;53.160;8.214;2023-03-31T02:00:32;12.63;;;3.37;;
23266;SDS011;11802;53.160;8.214;2023-03-31T02:05:57;11.87;;;3.07;;
23266;SDS011;11802;53.160;8.214;2023-03-31T02:08:30;16.13;;;2.97;;
23266;SDS011;11802;53.160;8.214;2023-03-31T02:11:01;15.40;;;3.53;;
23266;SDS011;11802;53.160;8.214;2023-03-31T02:13:27;12.27;;;3.10;;
23266;SDS011;11802;53.160;8.214;2023-03-31T02:15:55;20.60;;;4.00;;
23266;SDS011;11802;53.160;8.214;2023-03-31T02:18:26;17.60;;;3.73;;
23266;SDS011;11802;53.160;8.214;2023-03-31T02:20:54;14.70;;;3.60;;
23266;SDS011;11802;53.160;8.214;2023-03-31T02:23:23;21.70;;;4.20;;
23266;SDS011;11802;53.160;8.214;2023-03-31T02:25:56;19.20;;;4.23;;
23266;SDS011;11802;53.160;8.214;2023-03-31T02:28:33;11.97;;;4.40;;
23266;SDS011;11802;53.160;8.214;2023-03-31T02:34:00;18.17;;;3.87;;
23266;SDS011;11802;53.160;8.214;2023-03-31T02:36:26;16.87;;;4.20;;
23266;SDS011;11802;53.160;8.214;2023-03-31T02:39:04;17.10;;;4.00;;
23266;SDS011;11802;53.160;8.214;2023-03-31T02:41:35;16.77;;;3.80;;
23266;SDS011;11802;53.160;8.214;2023-03-31T02:44:01;14.40;;;4.20;;
23266;SDS011;11802;53.160;8.214;2023-03-31T02:46:27;9.93;;;3.93;;
23266;SDS011;11802;53.160;8.214;2023-03-31T02:48:56;14.00;;;4.00;;
23266;SDS011;11802;53.160;8.214;2023-03-31T02:59:56;13.33;;;3.57;;
23266;SDS011;11802;53.160;8.214;2023-03-31T03:08:20;12.57;;;4.07;;
23266;SDS011;11802;53.160;8.214;2023-03-31T03:11:20;21.10;;;4.77;;
23266;SDS011;11802;53.160;8.214;2023-03-31T03:13:52;9.33;;;3.40;;
23266;SDS011;11802;53.160;8.214;2023-03-31T03:16:44;12.27;;;3.53;;
23266;SDS011;11802;53.160;8.214;2023-03-31T03:19:18;11.47;;;3.47;;
23266;SDS011;11802;53.160;8.214;2023-03-31T03:21:46;11.30;;;3.40;;
23266;SDS011;11802;53.160;8.214;2023-03-31T03:24:12;14.40;;;3.37;;
23266;SDS011;11802;53.160;8.214;2023-03-31T03:26:42;14.73;;;3.57;;
23266;SDS011;11802;53.160;8.214;2023-03-31T03:29:11;11.47;;;3.23;;
23266;SDS011;11802;53.160;8.214;2023-03-31T03:31:38;12.47;;;3.43;;
23266;SDS011;11802;53.160;8.214;2023-03-31T03:34:07;10.07;;;3.30;;
23266;SDS011;11802;53.160;8.214;2023-03-31T03:36:36;9.67;;;2.90;;
23266;SDS011;11802;53.160;8.214;2023-03-31T03:39:02;10.87;;;3.13;;
23266;SDS011;11802;53.160;8.214;2023-03-31T03:41:29;13.27;;;3.40;;
23266;SDS011;11802;53.160;8.214;2023-03-31T03:43:57;13.80;;;3.03;;
23266;SDS011;11802;53.160;8.214;2023-03-31T03:46:23;13.20;;;3.33;;
23266;SDS011;11802;53.160;8.214;2023-03-31T03:48:48;12.17;;;2.70;;
23266;SDS011;11802;53.160;8.214;2023-03-31T03:51:14;12.73;;;3.07;;
23266;SDS011;11802;53.160;8.214;2023-03-31T03:53:40;11.70;;;3.07;;
23266;SDS011;11802;53.160;8.214;2023-03-31T03:56:05;9.63;;;3.27;;
23266;SDS011;11802;53.160;8.214;2023-03-31T03:58:31;8.37;;;2.77;;
23266;SDS011;11802;53.160;8.214;2023-03-31T04:00:56;11.53;;;2.97;;
23266;SDS011;11802;53.160;8.214;2023-03-31T04:03:22;12.70;;;2.87;;
23266;SDS011;11802;53.160;8.214;2023-03-31T04:05:48;13.73;;;2.80;;
23266;SDS011;11802;53.160;8.214;2023-03-31T04:08:14;9.60;;;2.60;;
23266;SDS011;11802;53.160;8.214;2023-03-31T04:10:43;10.90;;;3.43;;
23266;SDS011;11802;53.160;8.214;2023-03-31T04:13:13;14.97;;;3.07;;
23266;SDS011;11802;53.160;8.214;2023-03-31T04:15:40;15.37;;;3.07;;
23266;SDS011;11802;53.160;8.214;2023-03-31T04:18:06;14.67;;;3.23;;
23266;SDS011;11802;53.160;8.214;2023-03-31T04:20:36;10.73;;;2.73;;
23266;SDS011;11802;53.160;8.214;2023-03-31T04:23:02;10.57;;;2.90;;
23266;SDS011;11802;53.160;8.214;2023-03-31T04:25:29;11.80;;;3.00;;
23266;SDS011;11802;53.160;8.214;2023-03-31T04:27:55;8.10;;;2.80;;
23266;SDS011;11802;53.160;8.214;2023-03-31T04:30:21;12.37;;;3.30;;
23266;SDS011;11802;53.160;8.214;2023-03-31T04:33:03;10.40;;;3.13;;
23266;SDS011;11802;53.160;8.214;2023-03-31T04:35:30;12.67;;;2.87;;
23266;SDS011;11802;53.160;8.214;2023-03-31T04:38:12;9.70;;;2.73;;
23266;SDS011;11802;53.160;8.214;2023-03-31T04:40:38;14.97;;;3.63;;
23266;SDS011;11802;53.160;8.214;2023-03-31T04:43:05;10.80;;;3.07;;
23266;SDS011;11802;53.160;8.214;2023-03-31T04:45:31;8.53;;;2.83;;
23266;SDS011;11802;53.160;8.214;2023-03-31T04:47:56;15.60;;;3.20;;
23266;SDS011;11802;53.160;8.214;2023-03-31T04:50:22;12.53;;;3.20;;
23266;SDS011;11802;53.160;8.214;2023-03-31T04:52:47;9.97;;;2.77;;
23266;SDS011;11802;53.160;8.214;2023-03-31T04:55:13;13.90;;;3.90;;
23266;SDS011;11802;53.160;8.214;2023-03-31T04:57:38;8.13;;;3.23;;
23266;SDS011;11802;53.160;8.214;2023-03-31T05:00:07;8.70;;;2.83;;
23266;SDS011;11802;53.160;8.214;2023-03-31T05:02:34;10.53;;;3.27;;
23266;SDS011;11802;53.160;8.214;2023-03-31T05:05:00;15.10;;;3.20;;
23266;SDS011;11802;53.160;8.214;2023-03-31T05:07:25;12.83;;;2.70;;
23266;SDS011;11802;53.160;8.214;2023-03-31T05:09:51;12.93;;;2.83;;
23266;SDS011;11802;53.160;8.214;2023-03-31T05:12:16;13.70;;;3.00;;
23266;SDS011;11802;53.160;8.214;2023-03-31T05:14:42;11.07;;;3.23;;
23266;SDS011;11802;53.160;8.214;2023-03-31T05:17:08;10.57;;;2.87;;
23266;SDS011;11802;53.160;8.214;2023-03-31T05:19:33;14.20;;;3.23;;
23266;SDS011;11802;53.160;8.214;2023-03-31T05:21:59;10.50;;;2.80;;
23266;SDS011;11802;53.160;8.214;2023-03-31T05:24:24;10.27;;;3.20;;
23266;SDS011;11802;53.160;8.214;2023-03-31T05:26:52;8.90;;;3.20;;
23266;SDS011;11802;53.160;8.214;2023-03-31T05:29:18;12.07;;;3.10;;
23266;SDS011;11802;53.160;8.214;2023-03-31T05:31:44;11.07;;;2.90;;
23266;SDS011;11802;53.160;8.214;2023-03-31T05:34:09;18.03;;;3.10;;
23266;SDS011;11802;53.160;8.214;2023-03-31T05:36:35;9.83;;;2.83;;
23266;SDS011;11802;53.160;8.214;2023-03-31T05:39:01;14.07;;;3.20;;
23266;SDS011;11802;53.160;8.214;2023-03-31T05:41:27;8.70;;;3.40;;
23266;SDS011;11802;53.160;8.214;2023-03-31T05:43:53;7.67;;;3.30;;
23266;SDS011;11802;53.160;8.214;2023-03-31T05:46:21;17.53;;;3.40;;
23266;SDS011;11802;53.160;8.214;2023-03-31T05:48:47;12.07;;;3.53;;
23266;SDS011;11802;53.160;8.214;2023-03-31T05:51:12;12.50;;;3.73;;
23266;SDS011;11802;53.160;8.214;2023-03-31T05:53:38;13.47;;;4.27;;
23266;SDS011;11802;53.160;8.214;2023-03-31T05:56:04;13.03;;;4.40;;
23266;SDS011;11802;53.160;8.214;2023-03-31T05:58:32;16.27;;;5.27;;
23266;SDS011;11802;53.160;8.214;2023-03-31T06:01:00;16.70;;;7.00;;
23266;SDS011;11802;53.160;8.214;2023-03-31T06:03:26;12.97;;;6.63;;
23266;SDS011;11802;53.160;8.214;2023-03-31T06:05:52;18.30;;;7.47;;
23266;SDS011;11802;53.160;8.214;2023-03-31T06:08:18;17.97;;;8.07;;
23266;SDS011;11802;53.160;8.214;2023-03-31T06:10:43;14.47;;;8.17;;
23266;SDS011;11802;53.160;8.214;2023-03-31T06:13:09;18.67;;;10.63;;
23266;SDS011;11802;53.160;8.214;2023-03-31T06:15:34;18.37;;;9.00;;
23266;SDS011;11802;53.160;8.214;2023-03-31T06:18:00;16.13;;;9.93;;
23266;SDS011;11802;53.160;8.214;2023-03-31T06:20:25;15.27;;;9.10;;
23266;SDS011;11802;53.160;8.214;2023-03-31T06:22:51;22.30;;;9.80;;
23266;SDS011;11802;53.160;8.214;2023-03-31T06:25:18;17.47;;;10.77;;
23266;SDS011;11802;53.160;8.214;2023-03-31T06:27:43;19.03;;;11.30;;
23266;SDS011;11802;53.160;8.214;2023-03-31T06:30:09;18.83;;;11.33;;
23266;SDS011;11802;53.160;8.214;2023-03-31T06:32:35;19.60;;;11.43;;
23266;SDS011;11802;53.160;8.214;2023-03-31T06:35:00;16.87;;;11.33;;
23266;SDS011;11802;53.160;8.214;2023-03-31T06:37:26;19.10;;;12.20;;
23266;SDS011;11802;53.160;8.214;2023-03-31T06:39:53;17.93;;;11.10;;
23266;SDS011;11802;53.160;8.214;2023-03-31T06:42:20;14.87;;;10.90;;
23266;SDS011;11802;53.160;8.214;2023-03-31T06:44:45;19.57;;;11.10;;
23266;SDS011;11802;53.160;8.214;2023-03-31T06:47:11;17.40;;;10.80;;
23266;SDS011;11802;53.160;8.214;2023-03-31T06:49:36;19.70;;;11.20;;
23266;SDS011;11802;53.160;8.214;2023-03-31T06:52:02;19.77;;;11.60;;
23266;SDS011;11802;53.160;8.214;2023-03-31T06:54:28;16.70;;;10.30;;
23266;SDS011;11802;53.160;8.214;2023-03-31T06:56:53;16.37;;;11.17;;
23266;SDS011;11802;53.160;8.214;2023-03-31T06:59:19;17.63;;;11.43;;
23266;SDS011;11802;53.160;8.214;2023-03-31T07:01:44;14.27;;;10.60;;
23266;SDS011;11802;53.160;8.214;2023-03-31T07:04:12;15.27;;;10.40;;
23266;SDS011;11802;53.160;8.214;2023-03-31T07:06:38;16.57;;;10.50;;
23266;SDS011;11802;53.160;8.214;2023-03-31T07:09:03;17.50;;;10.93;;
23266;SDS011;11802;53.160;8.214;2023-03-31T07:11:29;16.83;;;11.73;;
23266;SDS011;11802;53.160;8.214;2023-03-31T07:13:55;16.57;;;11.03;;
23266;SDS011;11802;53.160;8.214;2023-03-31T07:16:20;16.20;;;10.20;;
23266;SDS011;11802;53.160;8.214;2023-03-31T07:18:46;18.40;;;11.23;;
23266;SDS011;11802;53.160;8.214;2023-03-31T07:21:11;14.80;;;9.43;;
23266;SDS011;11802;53.160;8.214;2023-03-31T07:23:37;15.77;;;9.27;;
23266;SDS011;11802;53.160;8.214;2023-03-31T07:26:03;15.63;;;10.30;;
23266;SDS011;11802;53.160;8.214;2023-03-31T07:28:30;14.53;;;10.00;;
23266;SDS011;11802;53.160;8.214;2023-03-31T07:30:55;14.10;;;9.87;;
23266;SDS011;11802;53.160;8.214;2023-03-31T07:33:21;14.67;;;10.03;;
23266;SDS011;11802;53.160;8.214;2023-03-31T07:35:46;14.27;;;10.60;;
23266;SDS011;11802;53.160;8.214;2023-03-31T07:38:12;15.60;;;10.00;;
23266;SDS011;11802;53.160;8.214;2023-03-31T07:40:38;16.57;;;9.97;;
23266;SDS011;11802;53.160;8.214;2023-03-31T07:43:04;15.30;;;9.73;;
23266;SDS011;11802;53.160;8.214;2023-03-31T07:45:30;14.50;;;9.90;;
23266;SDS011;11802;53.160;8.214;2023-03-31T07:47:56;15.33;;;9.23;;
23266;SDS011;11802;53.160;8.214;2023-03-31T07:50:22;14.97;;;10.53;;
23266;SDS011;11802;53.160;8.214;2023-03-31T07:52:48;14.13;;;10.23;;
23266;SDS011;11802;53.160;8.214;2023-03-31T07:55:15;14.83;;;9.40;;
23266;SDS011;11802;53.160;8.214;2023-03-31T07:57:41;15.03;;;9.30;;
23266;SDS011;11802;53.160;8.214;2023-03-31T08:00:07;13.37;;;9.73;;
23266;SDS011;11802;53.160;8.214;2023-03-31T08:02:36;13.47;;;9.97;;
23266;SDS011;11802;53.160;8.214;2023-03-31T08:05:02;13.50;;;9.47;;
23266;SDS011;11802;53.160;8.214;2023-03-31T08:07:28;16.60;;;9.10;;
23266;SDS011;11802;53.160;8.214;2023-03-31T08:09:55;13.90;;;9.67;;
23266;SDS011;11802;53.160;8.214;2023-03-31T08:12:21;14.07;;;10.17;;
23266;SDS011;11802;53.160;8.214;2023-03-31T08:14:46;12.70;;;8.93;;
23266;SDS011;11802;53.160;8.214;2023-03-31T08:17:12;14.87;;;10.03;;
23266;SDS011;11802;53.160;8.214;2023-03-31T08:19:38;13.93;;;9.33;;
23266;SDS011;11802;53.160;8.214;2023-03-31T08:22:03;15.37;;;9.87;;
23266;SDS011;11802;53.160;8.214;2023-03-31T08:24:29;15.07;;;9.67;;
23266;SDS011;11802;53.160;8.214;2023-03-31T08:26:55;12.60;;;9.27;;
23266;SDS011;11802;53.160;8.214;2023-03-31T08:29:21;14.73;;;9.13;;
23266;SDS011;11802;53.160;8.214;2023-03-31T08:31:46;14.40;;;9.50;;
23266;SDS011;11802;53.160;8.214;2023-03-31T08:34:11;13.63;;;9.70;;
23266;SDS011;11802;53.160;8.214;2023-03-31T08:36:37;16.67;;;9.00;;
23266;SDS011;11802;53.160;8.214;2023-03-31T08:39:03;17.17;;;9.80;;
23266;SDS011;11802;53.160;8.214;2023-03-31T08:42:14;15.93;;;8.93;;
23266;SDS011;11802;53.160;8.214;2023-03-31T08:44:31;12.70;;;9.00;;
23266;SDS011;11802;53.160;8.214;2023-03-31T08:47:02;15.57;;;9.30;;
23266;SDS011;11802;53.160;8.214;2023-03-31T08:52:18;14.90;;;9.73;;
23266;SDS011;11802;53.160;8.214;2023-03-31T08:54:50;13.03;;;8.93;;
23266;SDS011;11802;53.160;8.214;2023-03-31T08:57:20;13.87;;;9.80;;
23266;SDS011;11802;53.160;8.214;2023-03-31T09:00:17;17.20;;;9.70;;
23266;SDS011;11802;53.160;8.214;2023-03-31T09:02:50;13.53;;;9.53;;
23266;SDS011;11802;53.160;8.214;2023-03-31T09:05:30;14.33;;;10.43;;
23266;SDS011;11802;53.160;8.214;2023-03-31T09:11:10;20.07;;;12.13;;
23266;SDS011;11802;53.160;8.214;2023-03-31T09:16:36;14.83;;;11.00;;
23266;SDS011;11802;53.160;8.214;2023-03-31T09:19:07;17.40;;;12.87;;
23266;SDS011;11802;53.160;8.214;2023-03-31T09:21:40;17.87;;;12.60;;
23266;SDS011;11802;53.160;8.214;2023-03-31T09:27:01;19.57;;;12.23;;
23266;SDS011;11802;53.160;8.214;2023-03-31T09:29:38;17.93;;;11.83;;
23266;SDS011;11802;53.160;8.214;2023-03-31T09:34:49;17.03;;;10.63;;
23266;SDS011;11802;53.160;8.214;2023-03-31T09:37:16;14.20;;;10.67;;
23266;SDS011;11802;53.160;8.214;2023-03-31T09:39:42;16.20;;;9.93;;
23266;SDS011;11802;53.160;8.214;2023-03-31T09:42:11;14.50;;;9.63;;
23266;SDS011;11802;53.160;8.214;2023-03-31T09:47:05;13.20;;;9.37;;
23266;SDS011;11802;53.160;8.214;2023-03-31T09:49:34;14.73;;;9.40;;
23266;SDS011;11802;53.160;8.214;2023-03-31T09:52:45;16.33;;;9.70;;
23266;SDS011;11802;53.160;8.214;2023-03-31T09:54:53;12.83;;;8.70;;
23266;SDS011;11802;53.160;8.214;2023-03-31T09:57:26;10.40;;;7.57;;
23266;SDS011;11802;53.160;8.214;2023-03-31T10:00:00;12.80;;;8.03;;
23266;SDS011;11802;53.160;8.214;2023-03-31T10:02:53;12.33;;;7.43;;
23266;SDS011;11802;53.160;8.214;2023-03-31T10:07:52;12.17;;;7.33;;
23266;SDS011;11802;53.160;8.214;2023-03-31T10:10:36;10.47;;;7.47;;
23266;SDS011;11802;53.160;8.214;2023-03-31T10:13:06;14.37;;;7.17;;
23266;SDS011;11802;53.160;8.214;2023-03-31T10:15:37;11.53;;;7.30;;
23266;SDS011;11802;53.160;8.214;2023-03-31T10:18:03;9.67;;;6.27;;
23266;SDS011;11802;53.160;8.214;2023-03-31T10:20:31;11.77;;;6.87;;
23266;SDS011;11802;53.160;8.214;2023-03-31T10:23:38;9.10;;;6.20;;
23266;SDS011;11802;53.160;8.214;2023-03-31T10:26:10;10.60;;;5.77;;
23266;SDS011;11802;53.160;8.214;2023-03-31T10:28:41;11.37;;;6.17;;
23266;SDS011;11802;53.160;8.214;2023-03-31T10:31:07;10.33;;;5.70;;
23266;SDS011;11802;53.160;8.214;2023-03-31T10:33:33;9.50;;;6.40;;
23266;SDS011;11802;53.160;8.214;2023-03-31T10:36:16;13.07;;;6.10;;
23266;SDS011;11802;53.160;8.214;2023-03-31T10:38:46;10.17;;;5.93;;
23266;SDS011;11802;53.160;8.214;2023-03-31T10:41:17;10.27;;;5.80;;
23266;SDS011;11802;53.160;8.214;2023-03-31T10:43:52;10.37;;;5.93;;
23266;SDS011;11802;53.160;8.214;2023-03-31T10:46:20;10.70;;;6.00;;
23266;SDS011;11802;53.160;8.214;2023-03-31T10:49:06;14.10;;;6.30;;
23266;SDS011;11802;53.160;8.214;2023-03-31T10:51:58;10.03;;;6.17;;
23266;SDS011;11802;53.160;8.214;2023-03-31T10:54:25;9.97;;;5.57;;
23266;SDS011;11802;53.160;8.214;2023-03-31T10:56:51;11.53;;;5.60;;
23266;SDS011;11802;53.160;8.214;2023-03-31T10:59:36;10.80;;;5.53;;
23266;SDS011;11802;53.160;8.214;2023-03-31T11:02:32;8.03;;;5.17;;
23266;SDS011;11802;53.160;8.214;2023-03-31T11:05:19;9.10;;;5.37;;
23266;SDS011;11802;53.160;8.214;2023-03-31T11:08:04;11.90;;;6.70;;
23266;SDS011;11802;53.160;8.214;2023-03-31T11:16:25;11.03;;;5.30;;
23266;SDS011;11802;53.160;8.214;2023-03-31T11:21:55;14.87;;;5.47;;
23266;SDS011;11802;53.160;8.214;2023-03-31T11:27:58;11.10;;;4.53;;
23266;SDS011;11802;53.160;8.214;2023-03-31T11:36:16;6.90;;;3.67;;
23266;SDS011;11802;53.160;8.214;2023-03-31T11:42:20;7.80;;;4.40;;
23266;SDS011;11802;53.160;8.214;2023-03-31T11:44:57;8.77;;;4.30;;
23266;SDS011;11802;53.160;8.214;2023-03-31T11:47:29;11.47;;;4.30;;
23266;SDS011;11802;53.160;8.214;2023-03-31T11:50:15;8.47;;;4.67;;
23266;SDS011;11802;53.160;8.214;2023-03-31T11:53:32;10.63;;;5.00;;
23266;SDS011;11802;53.160;8.214;2023-03-31T11:55:38;10.13;;;4.73;;
23266;SDS011;11802;53.160;8.214;2023-03-31T11:58:06;9.67;;;4.63;;
23266;SDS011;11802;53.160;8.214;2023-03-31T12:00:42;8.27;;;4.80;;
23266;SDS011;11802;53.160;8.214;2023-03-31T12:05:55;5.60;;;3.70;;
23266;SDS011;11802;53.160;8.214;2023-03-31T12:11:02;5.57;;;3.60;;
23266;SDS011;11802;53.160;8.214;2023-03-31T12:13:41;8.47;;;3.33;;
23266;SDS011;11802;53.160;8.214;2023-03-31T12:16:17;6.63;;;3.30;;
23266;SDS011;11802;53.160;8.214;2023-03-31T12:19:07;5.60;;;3.20;;
23266;SDS011;11802;53.160;8.214;2023-03-31T12:21:41;7.13;;;3.37;;
23266;SDS011;11802;53.160;8.214;2023-03-31T12:24:13;6.10;;;3.30;;
23266;SDS011;11802;53.160;8.214;2023-03-31T12:26:41;7.87;;;3.10;;
23266;SDS011;11802;53.160;8.214;2023-03-31T12:29:30;4.23;;;2.20;;
23266;SDS011;11802;53.160;8.214;2023-03-31T12:32:06;4.63;;;1.97;;
23266;SDS011;11802;53.160;8.214;2023-03-31T12:34:44;4.63;;;2.17;;
23266;SDS011;11802;53.160;8.214;2023-03-31T12:37:36;5.63;;;2.40;;
23266;SDS011;11802;53.160;8.214;2023-03-31T12:48:57;6.33;;;3.23;;
23266;SDS011;11802;53.160;8.214;2023-03-31T12:51:59;4.30;;;2.03;;
23266;SDS011;11802;53.160;8.214;2023-03-31T12:57:19;6.40;;;2.20;;
23266;SDS011;11802;53.160;8.214;2023-03-31T12:59:46;4.67;;;1.93;;
23266;SDS011;11802;53.160;8.214;2023-03-31T13:02:34;4.97;;;1.80;;
23266;SDS011;11802;53.160;8.214;2023-03-31T13:04:59;8.63;;;2.33;;
23266;SDS011;11802;53.160;8.214;2023-03-31T13:08:02;4.10;;;1.90;;
23266;SDS011;11802;53.160;8.214;2023-03-31T13:11:07;5.33;;;2.20;;
23266;SDS011;11802;53.160;8.214;2023-03-31T13:13:26;5.30;;;2.20;;
23266;SDS011;11802;53.160;8.214;2023-03-31T13:15:52;3.97;;;1.90;;
23266;SDS011;11802;53.160;8.214;2023-03-31T13:18:20;4.13;;;2.00;;
23266;SDS011;11802;53.160;8.214;2023-03-31T13:20:56;4.40;;;2.03;;
23266;SDS011;11802;53.160;8.214;2023-03-31T13:23:33;6.23;;;2.40;;
23266;SDS011;11802;53.160;8.214;2023-03-31T13:26:01;5.00;;;2.10;;
23266;SDS011;11802;53.160;8.214;2023-03-31T13:28:31;4.30;;;2.30;;
23266;SDS011;11802;53.160;8.214;2023-03-31T13:31:09;4.90;;;2.10;;
23266;SDS011;11802;53.160;8.214;2023-03-31T13:36:09;6.20;;;2.33;;
23266;SDS011;11802;53.160;8.214;2023-03-31T13:38:43;4.93;;;2.20;;
23266;SDS011;11802;53.160;8.214;2023-03-31T13:41:24;5.83;;;2.40;;
23266;SDS011;11802;53.160;8.214;2023-03-31T13:44:01;5.20;;;2.43;;
23266;SDS011;11802;53.160;8.214;2023-03-31T13:50:11;3.73;;;2.20;;
23266;SDS011;11802;53.160;8.214;2023-03-31T14:01:13;4.10;;;2.27;;
23266;SDS011;11802;53.160;8.214;2023-03-31T14:06:49;3.07;;;1.73;;
23266;SDS011;11802;53.160;8.214;2023-03-31T14:09:22;7.60;;;2.27;;
23266;SDS011;11802;53.160;8.214;2023-03-31T14:11:57;6.50;;;2.40;;
23266;SDS011;11802;53.160;8.214;2023-03-31T14:14:24;6.07;;;2.40;;
23266;SDS011;11802;53.160;8.214;2023-03-31T14:16:54;6.47;;;2.30;;
23266;SDS011;11802;53.160;8.214;2023-03-31T14:24:43;11.73;;;2.83;;
23266;SDS011;11802;53.160;8.214;2023-03-31T14:27:16;5.13;;;2.28;;
23266;SDS011;11802;53.160;8.214;2023-03-31T14:32:49;9.15;;;2.70;;
23266;SDS011;11802;53.160;8.214;2023-03-31T14:35:42;10.13;;;2.63;;
23266;SDS011;11802;53.160;8.214;2023-03-31T14:38:25;7.50;;;2.07;;
23266;SDS011;11802;53.160;8.214;2023-03-31T14:40:52;8.85;;;2.38;;
23266;SDS011;11802;53.160;8.214;2023-03-31T14:43:25;4.45;;;1.80;;
23266;SDS011;11802;53.160;8.214;2023-03-31T14:45:58;5.78;;;2.30;;
23266;SDS011;11802;53.160;8.214;2023-03-31T14:48:26;8.55;;;2.55;;
23266;SDS011;11802;53.160;8.214;2023-03-31T14:51:00;5.18;;;2.28;;
23266;SDS011;11802;53.160;8.214;2023-03-31T14:53:27;7.88;;;3.00;;
23266;SDS011;11802;53.160;8.214;2023-03-31T14:56:04;6.50;;;2.55;;
23266;SDS011;11802;53.160;8.214;2023-03-31T14:58:34;8.57;;;2.70;;
23266;SDS011;11802;53.160;8.214;2023-03-31T15:01:03;8.00;;;2.30;;
23266;SDS011;11802;53.160;8.214;2023-03-31T15:03:33;8.63;;;2.67;;
23266;SDS011;11802;53.160;8.214;2023-03-31T15:06:00;5.67;;;2.53;;
23266;SDS011;11802;53.160;8.214;2023-03-31T15:08:27;7.73;;;2.77;;
23266;SDS011;11802;53.160;8.214;2023-03-31T15:10:55;8.23;;;2.83;;
23266;SDS011;11802;53.160;8.214;2023-03-31T15:18:52;8.93;;;3.13;;
23266;SDS011;11802;53.160;8.214;2023-03-31T15:21:25;10.27;;;3.40;;
23266;SDS011;11802;53.160;8.214;2023-03-31T15:23:54;9.07;;;2.50;;
23266;SDS011;11802;53.160;8.214;2023-03-31T15:26:23;8.83;;;2.97;;
23266;SDS011;11802;53.160;8.214;2023-03-31T15:29:00;11.17;;;2.97;;
23266;SDS011;11802;53.160;8.214;2023-03-31T15:31:33;9.60;;;2.90;;
23266;SDS011;11802;53.160;8.214;2023-03-31T15:33:59;6.87;;;2.63;;
23266;SDS011;11802;53.160;8.214;2023-03-31T15:36:37;8.73;;;2.47;;
23266;SDS011;11802;53.160;8.214;2023-03-31T15:39:02;8.50;;;2.70;;
23266;SDS011;11802;53.160;8.214;2023-03-31T15:41:30;8.87;;;2.50;;
23266;SDS011;11802;53.160;8.214;2023-03-31T15:44:02;9.53;;;3.00;;
23266;SDS011;11802;53.160;8.214;2023-03-31T15:49:03;8.97;;;2.70;;
23266;SDS011;11802;53.160;8.214;2023-03-31T15:51:35;7.23;;;2.77;;
23266;SDS011;11802;53.160;8.214;2023-03-31T15:54:01;9.90;;;2.73;;
23266;SDS011;11802;53.160;8.214;2023-03-31T15:56:33;9.37;;;3.10;;
23266;SDS011;11802;53.160;8.214;2023-03-31T15:59:05;9.90;;;2.70;;
23266;SDS011;11802;53.160;8.214;2023-03-31T16:01:52;7.90;;;2.80;;
23266;SDS011;11802;53.160;8.214;2023-03-31T16:04:20;6.57;;;2.43;;
23266;SDS011;11802;53.160;8.214;2023-03-31T16:06:59;9.63;;;3.13;;
23266;SDS011;11802;53.160;8.214;2023-03-31T16:09:40;7.57;;;3.03;;
23266;SDS011;11802;53.160;8.214;2023-03-31T16:15:16;7.47;;;2.60;;
23266;SDS011;11802;53.160;8.214;2023-03-31T16:17:45;6.93;;;2.90;;
23266;SDS011;11802;53.160;8.214;2023-03-31T16:20:17;7.63;;;3.20;;
23266;SDS011;11802;53.160;8.214;2023-03-31T16:22:47;6.47;;;3.10;;
23266;SDS011;11802;53.160;8.214;2023-03-31T16:25:17;7.87;;;2.90;;
23266;SDS011;11802;53.160;8.214;2023-03-31T16:27:56;10.20;;;3.47;;
23266;SDS011;11802;53.160;8.214;2023-03-31T16:30:45;9.83;;;3.00;;
23266;SDS011;11802;53.160;8.214;2023-03-31T16:33:17;8.97;;;3.50;;
23266;SDS011;11802;53.160;8.214;2023-03-31T16:35:44;8.90;;;3.30;;
23266;SDS011;11802;53.160;8.214;2023-03-31T16:38:20;8.90;;;3.50;;
23266;SDS011;11802;53.160;8.214;2023-03-31T16:40:48;8.40;;;3.23;;
23266;SDS011;11802;53.160;8.214;2023-03-31T16:43:22;8.17;;;3.50;;
23266;SDS011;11802;53.160;8.214;2023-03-31T16:45:58;9.77;;;3.50;;
23266;SDS011;11802;53.160;8.214;2023-03-31T16:48:26;7.23;;;3.10;;
23266;SDS011;11802;53.160;8.214;2023-03-31T16:50:54;9.43;;;3.43;;
23266;SDS011;11802;53.160;8.214;2023-03-31T16:53:28;5.20;;;3.47;;
23266;SDS011;11802;53.160;8.214;2023-03-31T16:55:56;10.17;;;3.80;;
23266;SDS011;11802;53.160;8.214;2023-03-31T16:58:22;8.23;;;3.60;;
23266;SDS011;11802;53.160;8.214;2023-03-31T17:00:48;9.50;;;3.70;;
23266;SDS011;11802;53.160;8.214;2023-03-31T17:03:15;10.47;;;3.87;;
23266;SDS011;11802;53.160;8.214;2023-03-31T17:05:44;7.73;;;3.80;;
23266;SDS011;11802;53.160;8.214;2023-03-31T17:08:11;8.53;;;3.80;;
23266;SDS011;11802;53.160;8.214;2023-03-31T17:10:38;10.37;;;4.40;;
23266;SDS011;11802;53.160;8.214;2023-03-31T17:13:04;7.97;;;3.97;;
23266;SDS011;11802;53.160;8.214;2023-03-31T17:15:30;8.80;;;3.73;;
23266;SDS011;11802;53.160;8.214;2023-03-31T17:17:56;9.20;;;3.90;;